PWSweather.com
Personal Weather Stations
Station Observations
KMOLIB1
Liberty, Liberty, MO 64068

LibertyLiberty, MO 64068

Lat: 39.24, Lon: -94.45

Elevation: 866

Station Type:

High Low Average
Temperature 25.0°F-3.9°C 13.0°F-10.6°C 18.7°F-7.4°C
Dew Point 4.1°F-15.5°C -7.3°F-21.8°C -1.9°F-18.8°C
Winds 15.0 mph 24.1 kmh Calm Calm 4.0 mph S6.4 kmh S
Wind Gusts 19.0 mph30.6 kmh 4.0 mph6.4 kmh 15.0 mph24.1 kmh
Humidity 43% 33% 39%
Pressure 210.64 in7133.1 mb 210.23 in7119.2 mb -
Precipitation 0.00 in0.0 mm - -
Hour Temp Dew Point Humidity Winds Wind Gusts Pressure Precip Precip Rate Daily Precip Total
12:00 AM 14.0°F-10.0°C -6.4°F-21.3°C 39% 4.0 mph N6.4 kmh N 4.0 mph6.4 kmh 210.62 in7132.4 mb 0.00 in0.0 mm 0.00 in0.0 mm 0.00 in0.0 mm
12:05 AM 14.0°F-10.0°C -6.4°F-21.3°C 39% 5.0 mph N8.0 kmh N 9.0 mph14.5 kmh 210.62 in7132.4 mb 0.00 in0.0 mm 0.00 in0.0 mm 0.00 in0.0 mm
12:10 AM 14.0°F-10.0°C -6.4°F-21.3°C 39% 4.0 mph N6.4 kmh N 10.0 mph16.1 kmh 210.62 in7132.4 mb 0.00 in0.0 mm 0.00 in0.0 mm 0.00 in0.0 mm
12:15 AM 14.0°F-10.0°C -6.4°F-21.3°C 39% 12.0 mph N19.3 kmh N 12.0 mph19.3 kmh 210.62 in7132.4 mb 0.00 in0.0 mm 0.00 in0.0 mm 0.00 in0.0 mm
12:20 AM 14.0°F-10.0°C -6.4°F-21.3°C 39% 2.0 mph NW3.2 kmh NW 12.0 mph19.3 kmh 210.62 in7132.4 mb 0.00 in0.0 mm 0.00 in0.0 mm 0.00 in0.0 mm
12:25 AM 14.0°F-10.0°C -6.4°F-21.3°C 39% 7.0 mph N11.3 kmh N 12.0 mph19.3 kmh 210.63 in7132.8 mb 0.00 in0.0 mm 0.00 in0.0 mm 0.00 in0.0 mm
12:30 AM 14.0°F-10.0°C -6.4°F-21.3°C 39% Calm Calm 13.0 mph20.9 kmh 210.63 in7132.8 mb 0.00 in0.0 mm 0.00 in0.0 mm 0.00 in0.0 mm
12:35 AM 14.0°F-10.0°C -6.4°F-21.3°C 39% 6.0 mph NNW9.7 kmh NNW 13.0 mph20.9 kmh 210.63 in7132.8 mb 0.00 in0.0 mm 0.00 in0.0 mm 0.00 in0.0 mm
12:40 AM 14.0°F-10.0°C -6.4°F-21.3°C 39% 9.0 mph N14.5 kmh N 13.0 mph20.9 kmh 210.63 in7132.8 mb 0.00 in0.0 mm 0.00 in0.0 mm 0.00 in0.0 mm
12:45 AM 14.0°F-10.0°C -6.4°F-21.3°C 39% 4.0 mph N6.4 kmh N 13.0 mph20.9 kmh 210.63 in7132.8 mb 0.00 in0.0 mm 0.00 in0.0 mm 0.00 in0.0 mm
12:50 AM 14.0°F-10.0°C -6.4°F-21.3°C 39% 7.0 mph NNW11.3 kmh NNW 13.0 mph20.9 kmh 210.63 in7132.8 mb 0.00 in0.0 mm 0.00 in0.0 mm 0.00 in0.0 mm
12:55 AM 14.0°F-10.0°C -6.4°F-21.3°C 39% 7.0 mph N11.3 kmh N 13.0 mph20.9 kmh 210.64 in7133.1 mb 0.00 in0.0 mm 0.00 in0.0 mm 0.00 in0.0 mm
01:00 AM 14.0°F-10.0°C -6.4°F-21.3°C 39% 4.0 mph N6.4 kmh N 13.0 mph20.9 kmh 210.64 in7133.1 mb 0.00 in0.0 mm 0.00 in0.0 mm 0.00 in0.0 mm
01:05 AM 14.0°F-10.0°C -6.4°F-21.3°C 39% 6.0 mph N9.7 kmh N 13.0 mph20.9 kmh 210.63 in7132.8 mb 0.00 in0.0 mm 0.00 in0.0 mm 0.00 in0.0 mm
01:10 AM 14.0°F-10.0°C -6.4°F-21.3°C 39% 6.0 mph NW9.7 kmh NW 13.0 mph20.9 kmh 210.63 in7132.8 mb 0.00 in0.0 mm 0.00 in0.0 mm 0.00 in0.0 mm
01:15 AM 14.0°F-10.0°C -6.4°F-21.3°C 39% 5.0 mph N8.0 kmh N 13.0 mph20.9 kmh 210.62 in7132.4 mb 0.00 in0.0 mm 0.00 in0.0 mm 0.00 in0.0 mm
01:20 AM 14.0°F-10.0°C -6.4°F-21.3°C 39% 9.0 mph NNE14.5 kmh NNE 13.0 mph20.9 kmh 210.62 in7132.4 mb 0.00 in0.0 mm 0.00 in0.0 mm 0.00 in0.0 mm
01:25 AM 14.0°F-10.0°C -5.9°F-21.1°C 40% 5.0 mph N8.0 kmh N 13.0 mph20.9 kmh 210.62 in7132.4 mb 0.00 in0.0 mm 0.00 in0.0 mm 0.00 in0.0 mm
01:30 AM 14.0°F-10.0°C -6.4°F-21.3°C 39% 6.0 mph N9.7 kmh N 13.0 mph20.9 kmh 210.62 in7132.4 mb 0.00 in0.0 mm 0.00 in0.0 mm 0.00 in0.0 mm
01:35 AM 14.0°F-10.0°C -6.4°F-21.3°C 39% 7.0 mph N11.3 kmh N 13.0 mph20.9 kmh 210.62 in7132.4 mb 0.00 in0.0 mm 0.00 in0.0 mm 0.00 in0.0 mm
01:40 AM 14.0°F-10.0°C -6.4°F-21.3°C 39% 7.0 mph N11.3 kmh N 13.0 mph20.9 kmh 210.62 in7132.4 mb 0.00 in0.0 mm 0.00 in0.0 mm 0.00 in0.0 mm
01:45 AM 14.0°F-10.0°C -6.4°F-21.3°C 39% 10.0 mph NNE16.1 kmh NNE 13.0 mph20.9 kmh 210.62 in7132.4 mb 0.00 in0.0 mm 0.00 in0.0 mm 0.00 in0.0 mm
01:50 AM 14.0°F-10.0°C -5.4°F-20.8°C 41% 7.0 mph NNW11.3 kmh NNW 13.0 mph20.9 kmh 210.62 in7132.4 mb 0.00 in0.0 mm 0.00 in0.0 mm 0.00 in0.0 mm
01:55 AM 14.0°F-10.0°C -6.4°F-21.3°C 39% 5.0 mph NNW8.0 kmh NNW 13.0 mph20.9 kmh 210.62 in7132.4 mb 0.00 in0.0 mm 0.00 in0.0 mm 0.00 in0.0 mm
02:00 AM 14.0°F-10.0°C -5.9°F-21.1°C 40% 5.0 mph N8.0 kmh N 13.0 mph20.9 kmh 210.62 in7132.4 mb 0.00 in0.0 mm 0.00 in0.0 mm 0.00 in0.0 mm
02:05 AM 14.0°F-10.0°C -6.4°F-21.3°C 39% 4.0 mph NNW6.4 kmh NNW 13.0 mph20.9 kmh 210.61 in7132.1 mb 0.00 in0.0 mm 0.00 in0.0 mm 0.00 in0.0 mm
02:10 AM 14.0°F-10.0°C -6.4°F-21.3°C 39% 4.0 mph NW6.4 kmh NW 13.0 mph20.9 kmh 210.61 in7132.1 mb 0.00 in0.0 mm 0.00 in0.0 mm 0.00 in0.0 mm
02:15 AM 14.0°F-10.0°C -6.4°F-21.3°C 39% 4.0 mph NNE6.4 kmh NNE 13.0 mph20.9 kmh 210.60 in7131.7 mb 0.00 in0.0 mm 0.00 in0.0 mm 0.00 in0.0 mm
02:20 AM 14.0°F-10.0°C -6.4°F-21.3°C 39% 9.0 mph NNW14.5 kmh NNW 13.0 mph20.9 kmh 210.60 in7131.7 mb 0.00 in0.0 mm 0.00 in0.0 mm 0.00 in0.0 mm
02:25 AM 14.0°F-10.0°C -6.4°F-21.3°C 39% 7.0 mph N11.3 kmh N 13.0 mph20.9 kmh 210.59 in7131.4 mb 0.00 in0.0 mm 0.00 in0.0 mm 0.00 in0.0 mm
02:30 AM 14.0°F-10.0°C -6.4°F-21.3°C 39% 3.0 mph NW4.8 kmh NW 13.0 mph20.9 kmh 210.59 in7131.4 mb 0.00 in0.0 mm 0.00 in0.0 mm 0.00 in0.0 mm
02:35 AM 14.0°F-10.0°C -6.4°F-21.3°C 39% 8.0 mph NNE12.9 kmh NNE 13.0 mph20.9 kmh 210.58 in7131.1 mb 0.00 in0.0 mm 0.00 in0.0 mm 0.00 in0.0 mm
02:40 AM 14.0°F-10.0°C -6.4°F-21.3°C 39% 4.0 mph NNW6.4 kmh NNW 13.0 mph20.9 kmh 210.58 in7131.1 mb 0.00 in0.0 mm 0.00 in0.0 mm 0.00 in0.0 mm
02:45 AM 14.0°F-10.0°C -6.4°F-21.3°C 39% 6.0 mph N9.7 kmh N 13.0 mph20.9 kmh 210.59 in7131.4 mb 0.00 in0.0 mm 0.00 in0.0 mm 0.00 in0.0 mm
02:50 AM 14.0°F-10.0°C -5.9°F-21.1°C 40% 5.0 mph N8.0 kmh N 13.0 mph20.9 kmh 210.59 in7131.4 mb 0.00 in0.0 mm 0.00 in0.0 mm 0.00 in0.0 mm
02:55 AM 14.0°F-10.0°C -6.4°F-21.3°C 39% 5.0 mph N8.0 kmh N 13.0 mph20.9 kmh 210.59 in7131.4 mb 0.00 in0.0 mm 0.00 in0.0 mm 0.00 in0.0 mm
03:00 AM 14.0°F-10.0°C -6.4°F-21.3°C 39% 4.0 mph NNE6.4 kmh NNE 13.0 mph20.9 kmh 210.59 in7131.4 mb 0.00 in0.0 mm 0.00 in0.0 mm 0.00 in0.0 mm
03:05 AM 14.0°F-10.0°C -6.4°F-21.3°C 39% 6.0 mph N9.7 kmh N 13.0 mph20.9 kmh 210.59 in7131.4 mb 0.00 in0.0 mm 0.00 in0.0 mm 0.00 in0.0 mm
03:10 AM 14.0°F-10.0°C -5.9°F-21.1°C 40% 7.0 mph NNE11.3 kmh NNE 13.0 mph20.9 kmh 210.59 in7131.4 mb 0.00 in0.0 mm 0.00 in0.0 mm 0.00 in0.0 mm
03:15 AM 14.0°F-10.0°C -5.9°F-21.1°C 40% 8.0 mph NE12.9 kmh NE 13.0 mph20.9 kmh 210.58 in7131.1 mb 0.00 in0.0 mm 0.00 in0.0 mm 0.00 in0.0 mm
03:20 AM 14.0°F-10.0°C -5.9°F-21.1°C 40% 7.0 mph NE11.3 kmh NE 13.0 mph20.9 kmh 210.58 in7131.1 mb 0.00 in0.0 mm 0.00 in0.0 mm 0.00 in0.0 mm
03:25 AM 14.0°F-10.0°C -5.9°F-21.1°C 40% 1.0 mph N1.6 kmh N 13.0 mph20.9 kmh 210.58 in7131.1 mb 0.00 in0.0 mm 0.00 in0.0 mm 0.00 in0.0 mm
03:30 AM 14.0°F-10.0°C -5.9°F-21.1°C 40% 7.0 mph N11.3 kmh N 13.0 mph20.9 kmh 210.58 in7131.1 mb 0.00 in0.0 mm 0.00 in0.0 mm 0.00 in0.0 mm
03:35 AM 14.0°F-10.0°C -5.9°F-21.1°C 40% 7.0 mph NNE11.3 kmh NNE 13.0 mph20.9 kmh 210.58 in7131.1 mb 0.00 in0.0 mm 0.00 in0.0 mm 0.00 in0.0 mm
03:40 AM 14.0°F-10.0°C -5.9°F-21.1°C 40% 6.0 mph NE9.7 kmh NE 13.0 mph20.9 kmh 210.58 in7131.1 mb 0.00 in0.0 mm 0.00 in0.0 mm 0.00 in0.0 mm
03:45 AM 14.0°F-10.0°C -5.9°F-21.1°C 40% 4.0 mph N6.4 kmh N 13.0 mph20.9 kmh 210.58 in7131.1 mb 0.00 in0.0 mm 0.00 in0.0 mm 0.00 in0.0 mm
03:50 AM 14.0°F-10.0°C -5.9°F-21.1°C 40% 6.0 mph NNE9.7 kmh NNE 13.0 mph20.9 kmh 210.58 in7131.1 mb 0.00 in0.0 mm 0.00 in0.0 mm 0.00 in0.0 mm
03:55 AM 14.0°F-10.0°C -5.9°F-21.1°C 40% 5.0 mph NE8.0 kmh NE 13.0 mph20.9 kmh 210.57 in7130.7 mb 0.00 in0.0 mm 0.00 in0.0 mm 0.00 in0.0 mm
04:00 AM 14.0°F-10.0°C -5.9°F-21.1°C 40% 8.0 mph NE12.9 kmh NE 13.0 mph20.9 kmh 210.57 in7130.7 mb 0.00 in0.0 mm 0.00 in0.0 mm 0.00 in0.0 mm
04:05 AM 14.0°F-10.0°C -5.9°F-21.1°C 40% 3.0 mph N4.8 kmh N 13.0 mph20.9 kmh 210.57 in7130.7 mb 0.00 in0.0 mm 0.00 in0.0 mm 0.00 in0.0 mm
04:10 AM 14.0°F-10.0°C -5.9°F-21.1°C 40% 3.0 mph ENE4.8 kmh ENE 13.0 mph20.9 kmh 210.57 in7130.7 mb 0.00 in0.0 mm 0.00 in0.0 mm 0.00 in0.0 mm
04:15 AM 14.0°F-10.0°C -5.9°F-21.1°C 40% 7.0 mph NE11.3 kmh NE 13.0 mph20.9 kmh 210.56 in7130.4 mb 0.00 in0.0 mm 0.00 in0.0 mm 0.00 in0.0 mm
04:20 AM 14.0°F-10.0°C -5.9°F-21.1°C 40% 5.0 mph N8.0 kmh N 13.0 mph20.9 kmh 210.56 in7130.4 mb 0.00 in0.0 mm 0.00 in0.0 mm 0.00 in0.0 mm
04:25 AM 14.0°F-10.0°C -5.9°F-21.1°C 40% 5.0 mph N8.0 kmh N 13.0 mph20.9 kmh 210.56 in7130.4 mb 0.00 in0.0 mm 0.00 in0.0 mm 0.00 in0.0 mm
04:30 AM 14.0°F-10.0°C -5.9°F-21.1°C 40% 5.0 mph ENE8.0 kmh ENE 13.0 mph20.9 kmh 210.56 in7130.4 mb 0.00 in0.0 mm 0.00 in0.0 mm 0.00 in0.0 mm
04:35 AM 14.0°F-10.0°C -5.9°F-21.1°C 40% 1.0 mph NW1.6 kmh NW 13.0 mph20.9 kmh 210.56 in7130.4 mb 0.00 in0.0 mm 0.00 in0.0 mm 0.00 in0.0 mm
04:40 AM 14.0°F-10.0°C -5.9°F-21.1°C 40% Calm Calm 13.0 mph20.9 kmh 210.56 in7130.4 mb 0.00 in0.0 mm 0.00 in0.0 mm 0.00 in0.0 mm
04:45 AM 14.0°F-10.0°C -5.9°F-21.1°C 40% 9.0 mph NE14.5 kmh NE 13.0 mph20.9 kmh 210.56 in7130.4 mb 0.00 in0.0 mm 0.00 in0.0 mm 0.00 in0.0 mm
04:50 AM 14.0°F-10.0°C -5.9°F-21.1°C 40% 3.0 mph SE4.8 kmh SE 13.0 mph20.9 kmh 210.56 in7130.4 mb 0.00 in0.0 mm 0.00 in0.0 mm 0.00 in0.0 mm
04:55 AM 14.0°F-10.0°C -5.9°F-21.1°C 40% 1.0 mph SW1.6 kmh SW 13.0 mph20.9 kmh 210.56 in7130.4 mb 0.00 in0.0 mm 0.00 in0.0 mm 0.00 in0.0 mm
05:00 AM 14.0°F-10.0°C -5.9°F-21.1°C 40% 5.0 mph NNW8.0 kmh NNW 13.0 mph20.9 kmh 210.56 in7130.4 mb 0.00 in0.0 mm 0.00 in0.0 mm 0.00 in0.0 mm
05:05 AM 14.0°F-10.0°C -5.9°F-21.1°C 40% 2.0 mph NNE3.2 kmh NNE 13.0 mph20.9 kmh 210.56 in7130.4 mb 0.00 in0.0 mm 0.00 in0.0 mm 0.00 in0.0 mm
05:10 AM 14.0°F-10.0°C -5.9°F-21.1°C 40% 3.0 mph NE4.8 kmh NE 13.0 mph20.9 kmh 210.56 in7130.4 mb 0.00 in0.0 mm 0.00 in0.0 mm 0.00 in0.0 mm
05:15 AM 14.0°F-10.0°C -5.9°F-21.1°C 40% 3.0 mph NNE4.8 kmh NNE 13.0 mph20.9 kmh 210.57 in7130.7 mb 0.00 in0.0 mm 0.00 in0.0 mm 0.00 in0.0 mm
05:20 AM 14.0°F-10.0°C -5.9°F-21.1°C 40% 2.0 mph NE3.2 kmh NE 13.0 mph20.9 kmh 210.57 in7130.7 mb 0.00 in0.0 mm 0.00 in0.0 mm 0.00 in0.0 mm
05:25 AM 14.0°F-10.0°C -5.9°F-21.1°C 40% 6.0 mph NE9.7 kmh NE 13.0 mph20.9 kmh 210.57 in7130.7 mb 0.00 in0.0 mm 0.00 in0.0 mm 0.00 in0.0 mm
05:30 AM 14.0°F-10.0°C -5.9°F-21.1°C 40% 3.0 mph NW4.8 kmh NW 13.0 mph20.9 kmh 210.57 in7130.7 mb 0.00 in0.0 mm 0.00 in0.0 mm 0.00 in0.0 mm
05:35 AM 14.0°F-10.0°C -5.9°F-21.1°C 40% 6.0 mph NNE9.7 kmh NNE 13.0 mph20.9 kmh 210.58 in7131.1 mb 0.00 in0.0 mm 0.00 in0.0 mm 0.00 in0.0 mm
05:40 AM 14.0°F-10.0°C -5.9°F-21.1°C 40% 7.0 mph NE11.3 kmh NE 13.0 mph20.9 kmh 210.58 in7131.1 mb 0.00 in0.0 mm 0.00 in0.0 mm 0.00 in0.0 mm
05:45 AM 14.0°F-10.0°C -5.9°F-21.1°C 40% 2.0 mph NE3.2 kmh NE 13.0 mph20.9 kmh 210.57 in7130.7 mb 0.00 in0.0 mm 0.00 in0.0 mm 0.00 in0.0 mm
05:50 AM 14.0°F-10.0°C -5.9°F-21.1°C 40% Calm Calm 13.0 mph20.9 kmh 210.57 in7130.7 mb 0.00 in0.0 mm 0.00 in0.0 mm 0.00 in0.0 mm
05:55 AM 14.0°F-10.0°C -5.9°F-21.1°C 40% 2.0 mph NE3.2 kmh NE 13.0 mph20.9 kmh 210.57 in7130.7 mb 0.00 in0.0 mm 0.00 in0.0 mm 0.00 in0.0 mm
06:00 AM 14.0°F-10.0°C -5.9°F-21.1°C 40% 3.0 mph SSW4.8 kmh SSW 13.0 mph20.9 kmh 210.57 in7130.7 mb 0.00 in0.0 mm 0.00 in0.0 mm 0.00 in0.0 mm
06:05 AM 14.0°F-10.0°C -5.9°F-21.1°C 40% 1.0 mph WNW1.6 kmh WNW 13.0 mph20.9 kmh 210.58 in7131.1 mb 0.00 in0.0 mm 0.00 in0.0 mm 0.00 in0.0 mm
06:10 AM 14.0°F-10.0°C -5.9°F-21.1°C 40% 3.0 mph SW4.8 kmh SW 13.0 mph20.9 kmh 210.58 in7131.1 mb 0.00 in0.0 mm 0.00 in0.0 mm 0.00 in0.0 mm
06:15 AM 14.0°F-10.0°C -5.9°F-21.1°C 40% 2.0 mph NW3.2 kmh NW 13.0 mph20.9 kmh 210.58 in7131.1 mb 0.00 in0.0 mm 0.00 in0.0 mm 0.00 in0.0 mm
06:20 AM 14.0°F-10.0°C -5.9°F-21.1°C 40% Calm Calm 13.0 mph20.9 kmh 210.58 in7131.1 mb 0.00 in0.0 mm 0.00 in0.0 mm 0.00 in0.0 mm
06:25 AM 14.0°F-10.0°C -5.9°F-21.1°C 40% Calm Calm 13.0 mph20.9 kmh 210.58 in7131.1 mb 0.00 in0.0 mm 0.00 in0.0 mm 0.00 in0.0 mm
06:30 AM 14.0°F-10.0°C -5.9°F-21.1°C 40% 1.0 mph NW1.6 kmh NW 13.0 mph20.9 kmh 210.58 in7131.1 mb 0.00 in0.0 mm 0.00 in0.0 mm 0.00 in0.0 mm
06:35 AM 14.0°F-10.0°C -5.9°F-21.1°C 40% 6.0 mph NE9.7 kmh NE 13.0 mph20.9 kmh 210.58 in7131.1 mb 0.00 in0.0 mm 0.00 in0.0 mm 0.00 in0.0 mm
06:40 AM 14.0°F-10.0°C -5.9°F-21.1°C 40% 6.0 mph NE9.7 kmh NE 13.0 mph20.9 kmh 210.58 in7131.1 mb 0.00 in0.0 mm 0.00 in0.0 mm 0.00 in0.0 mm
06:45 AM 14.0°F-10.0°C -5.9°F-21.1°C 40% 7.0 mph NNE11.3 kmh NNE 13.0 mph20.9 kmh 210.58 in7131.1 mb 0.00 in0.0 mm 0.00 in0.0 mm 0.00 in0.0 mm
06:50 AM 14.0°F-10.0°C -5.9°F-21.1°C 40% 1.0 mph N1.6 kmh N 13.0 mph20.9 kmh 210.58 in7131.1 mb 0.00 in0.0 mm 0.00 in0.0 mm 0.00 in0.0 mm
06:55 AM 14.0°F-10.0°C -5.9°F-21.1°C 40% Calm Calm 13.0 mph20.9 kmh 210.57 in7130.7 mb 0.00 in0.0 mm 0.00 in0.0 mm 0.00 in0.0 mm
07:00 AM 14.0°F-10.0°C -5.9°F-21.1°C 40% Calm Calm 13.0 mph20.9 kmh 210.57 in7130.7 mb 0.00 in0.0 mm 0.00 in0.0 mm 0.00 in0.0 mm
07:05 AM 13.0°F-10.6°C -6.8°F-21.6°C 40% 3.0 mph ENE4.8 kmh ENE 13.0 mph20.9 kmh 210.57 in7130.7 mb 0.00 in0.0 mm 0.00 in0.0 mm 0.00 in0.0 mm
07:10 AM 13.0°F-10.6°C -6.8°F-21.6°C 40% Calm Calm 13.0 mph20.9 kmh 210.57 in7130.7 mb 0.00 in0.0 mm 0.00 in0.0 mm 0.00 in0.0 mm
07:15 AM 13.0°F-10.6°C -6.8°F-21.6°C 40% 5.0 mph NE8.0 kmh NE 13.0 mph20.9 kmh 210.57 in7130.7 mb 0.00 in0.0 mm 0.00 in0.0 mm 0.00 in0.0 mm
07:20 AM 13.0°F-10.6°C -6.8°F-21.6°C 40% 6.0 mph NE9.7 kmh NE 13.0 mph20.9 kmh 210.57 in7130.7 mb 0.00 in0.0 mm 0.00 in0.0 mm 0.00 in0.0 mm
07:25 AM 13.0°F-10.6°C -6.8°F-21.6°C 40% 3.0 mph E4.8 kmh E 13.0 mph20.9 kmh 210.57 in7130.7 mb 0.00 in0.0 mm 0.00 in0.0 mm 0.00 in0.0 mm
07:30 AM 13.0°F-10.6°C -6.8°F-21.6°C 40% 4.0 mph NE6.4 kmh NE 13.0 mph20.9 kmh 210.57 in7130.7 mb 0.00 in0.0 mm 0.00 in0.0 mm 0.00 in0.0 mm
07:35 AM 13.0°F-10.6°C -6.8°F-21.6°C 40% 3.0 mph NNE4.8 kmh NNE 13.0 mph20.9 kmh 210.57 in7130.7 mb 0.00 in0.0 mm 0.00 in0.0 mm 0.00 in0.0 mm
07:40 AM 13.0°F-10.6°C -6.8°F-21.6°C 40% 6.0 mph NNE9.7 kmh NNE 13.0 mph20.9 kmh 210.57 in7130.7 mb 0.00 in0.0 mm 0.00 in0.0 mm 0.00 in0.0 mm
07:45 AM 13.0°F-10.6°C -6.8°F-21.6°C 40% 6.0 mph NNE9.7 kmh NNE 13.0 mph20.9 kmh 210.57 in7130.7 mb 0.00 in0.0 mm 0.00 in0.0 mm 0.00 in0.0 mm
07:50 AM 13.0°F-10.6°C -7.3°F-21.8°C 39% 7.0 mph NE11.3 kmh NE 13.0 mph20.9 kmh 210.57 in7130.7 mb 0.00 in0.0 mm 0.00 in0.0 mm 0.00 in0.0 mm
07:55 AM 13.0°F-10.6°C -6.8°F-21.6°C 40% 6.0 mph NE9.7 kmh NE 13.0 mph20.9 kmh 210.57 in7130.7 mb 0.00 in0.0 mm 0.00 in0.0 mm 0.00 in0.0 mm
08:00 AM 13.0°F-10.6°C -6.8°F-21.6°C 40% 4.0 mph NE6.4 kmh NE 13.0 mph20.9 kmh 210.57 in7130.7 mb 0.00 in0.0 mm 0.00 in0.0 mm 0.00 in0.0 mm
08:05 AM 13.0°F-10.6°C -7.3°F-21.8°C 39% 5.0 mph NE8.0 kmh NE 13.0 mph20.9 kmh 210.58 in7131.1 mb 0.00 in0.0 mm 0.00 in0.0 mm 0.00 in0.0 mm
08:10 AM 13.0°F-10.6°C -6.8°F-21.6°C 40% 2.0 mph NE3.2 kmh NE 13.0 mph20.9 kmh 210.58 in7131.1 mb 0.00 in0.0 mm 0.00 in0.0 mm 0.00 in0.0 mm
08:15 AM 13.0°F-10.6°C -7.3°F-21.8°C 39% 1.0 mph W1.6 kmh W 13.0 mph20.9 kmh 210.57 in7130.7 mb 0.00 in0.0 mm 0.00 in0.0 mm 0.00 in0.0 mm
08:20 AM 13.0°F-10.6°C -7.3°F-21.8°C 39% 2.0 mph N3.2 kmh N 13.0 mph20.9 kmh 210.57 in7130.7 mb 0.00 in0.0 mm 0.00 in0.0 mm 0.00 in0.0 mm
08:25 AM 14.0°F-10.0°C -5.9°F-21.1°C 40% 6.0 mph NE9.7 kmh NE 13.0 mph20.9 kmh 210.57 in7130.7 mb 0.00 in0.0 mm 0.00 in0.0 mm 0.00 in0.0 mm
08:30 AM 14.0°F-10.0°C -6.4°F-21.3°C 39% 6.0 mph NE9.7 kmh NE 13.0 mph20.9 kmh 210.57 in7130.7 mb 0.00 in0.0 mm 0.00 in0.0 mm 0.00 in0.0 mm
08:35 AM 14.0°F-10.0°C -6.4°F-21.3°C 39% 4.0 mph ENE6.4 kmh ENE 13.0 mph20.9 kmh 210.57 in7130.7 mb 0.00 in0.0 mm 0.00 in0.0 mm 0.00 in0.0 mm
08:40 AM 15.0°F-9.4°C -5.5°F-20.8°C 39% 6.0 mph NE9.7 kmh NE 13.0 mph20.9 kmh 210.57 in7130.7 mb 0.00 in0.0 mm 0.00 in0.0 mm 0.00 in0.0 mm
08:45 AM 15.0°F-9.4°C -5.5°F-20.8°C 39% 1.0 mph W1.6 kmh W 13.0 mph20.9 kmh 210.58 in7131.1 mb 0.00 in0.0 mm 0.00 in0.0 mm 0.00 in0.0 mm
08:50 AM 15.0°F-9.4°C -5.5°F-20.8°C 39% Calm Calm 13.0 mph20.9 kmh 210.58 in7131.1 mb 0.00 in0.0 mm 0.00 in0.0 mm 0.00 in0.0 mm
08:55 AM 15.0°F-9.4°C -5.5°F-20.8°C 39% 3.0 mph N4.8 kmh N 13.0 mph20.9 kmh 210.57 in7130.7 mb 0.00 in0.0 mm 0.00 in0.0 mm 0.00 in0.0 mm
09:00 AM 15.0°F-9.4°C -5.5°F-20.8°C 39% 1.0 mph S1.6 kmh S 13.0 mph20.9 kmh 210.57 in7130.7 mb 0.00 in0.0 mm 0.00 in0.0 mm 0.00 in0.0 mm
09:05 AM 15.0°F-9.4°C -5.0°F-20.6°C 40% 1.0 mph NW1.6 kmh NW 13.0 mph20.9 kmh 210.57 in7130.7 mb 0.00 in0.0 mm 0.00 in0.0 mm 0.00 in0.0 mm
09:10 AM 15.0°F-9.4°C -5.5°F-20.8°C 39% 6.0 mph E9.7 kmh E 13.0 mph20.9 kmh 210.57 in7130.7 mb 0.00 in0.0 mm 0.00 in0.0 mm 0.00 in0.0 mm
09:15 AM 15.0°F-9.4°C -5.5°F-20.8°C 39% 1.0 mph SSE1.6 kmh SSE 13.0 mph20.9 kmh 210.57 in7130.7 mb 0.00 in0.0 mm 0.00 in0.0 mm 0.00 in0.0 mm
09:20 AM 15.0°F-9.4°C -5.5°F-20.8°C 39% 3.0 mph WNW4.8 kmh WNW 13.0 mph20.9 kmh 210.57 in7130.7 mb 0.00 in0.0 mm 0.00 in0.0 mm 0.00 in0.0 mm
09:25 AM 15.0°F-9.4°C -5.5°F-20.8°C 39% 4.0 mph W6.4 kmh W 13.0 mph20.9 kmh 210.56 in7130.4 mb 0.00 in0.0 mm 0.00 in0.0 mm 0.00 in0.0 mm
09:30 AM 15.0°F-9.4°C -5.5°F-20.8°C 39% 4.0 mph WSW6.4 kmh WSW 13.0 mph20.9 kmh 210.56 in7130.4 mb 0.00 in0.0 mm 0.00 in0.0 mm 0.00 in0.0 mm
09:35 AM 15.0°F-9.4°C -5.5°F-20.8°C 39% 5.0 mph NNE8.0 kmh NNE 13.0 mph20.9 kmh 210.55 in7130.0 mb 0.00 in0.0 mm 0.00 in0.0 mm 0.00 in0.0 mm
09:40 AM 16.0°F-8.9°C -4.6°F-20.3°C 39% 3.0 mph NE4.8 kmh NE 13.0 mph20.9 kmh 210.55 in7130.0 mb 0.00 in0.0 mm 0.00 in0.0 mm 0.00 in0.0 mm
09:45 AM 16.0°F-8.9°C -4.6°F-20.3°C 39% 9.0 mph E14.5 kmh E 13.0 mph20.9 kmh 210.55 in7130.0 mb 0.00 in0.0 mm 0.00 in0.0 mm 0.00 in0.0 mm
09:50 AM 16.0°F-8.9°C -4.6°F-20.3°C 39% 2.0 mph S3.2 kmh S 13.0 mph20.9 kmh 210.55 in7130.0 mb 0.00 in0.0 mm 0.00 in0.0 mm 0.00 in0.0 mm
09:55 AM 16.0°F-8.9°C -4.6°F-20.3°C 39% 2.0 mph WSW3.2 kmh WSW 13.0 mph20.9 kmh 210.55 in7130.0 mb 0.00 in0.0 mm 0.00 in0.0 mm 0.00 in0.0 mm
10:00 AM 17.0°F-8.3°C -3.7°F-19.8°C 39% 3.0 mph N4.8 kmh N 13.0 mph20.9 kmh 210.55 in7130.0 mb 0.00 in0.0 mm 0.00 in0.0 mm 0.00 in0.0 mm
10:05 AM 17.0°F-8.3°C -3.7°F-19.8°C 39% 2.0 mph S3.2 kmh S 13.0 mph20.9 kmh 210.55 in7130.0 mb 0.00 in0.0 mm 0.00 in0.0 mm 0.00 in0.0 mm
10:10 AM 17.0°F-8.3°C -3.7°F-19.8°C 39% Calm Calm 13.0 mph20.9 kmh 210.55 in7130.0 mb 0.00 in0.0 mm 0.00 in0.0 mm 0.00 in0.0 mm
10:15 AM 18.0°F-7.8°C -2.8°F-19.3°C 39% 2.0 mph E3.2 kmh E 13.0 mph20.9 kmh 210.55 in7130.0 mb 0.00 in0.0 mm 0.00 in0.0 mm 0.00 in0.0 mm
10:20 AM 18.0°F-7.8°C -2.8°F-19.3°C 39% 1.0 mph NE1.6 kmh NE 13.0 mph20.9 kmh 210.55 in7130.0 mb 0.00 in0.0 mm 0.00 in0.0 mm 0.00 in0.0 mm
10:25 AM 18.0°F-7.8°C -2.8°F-19.3°C 39% Calm Calm 13.0 mph20.9 kmh 210.54 in7129.7 mb 0.00 in0.0 mm 0.00 in0.0 mm 0.00 in0.0 mm
10:30 AM 18.0°F-7.8°C -2.8°F-19.3°C 39% 1.0 mph ESE1.6 kmh ESE 13.0 mph20.9 kmh 210.54 in7129.7 mb 0.00 in0.0 mm 0.00 in0.0 mm 0.00 in0.0 mm
10:35 AM 19.0°F-7.2°C -1.9°F-18.8°C 39% Calm Calm 13.0 mph20.9 kmh 210.56 in7130.4 mb 0.00 in0.0 mm 0.00 in0.0 mm 0.00 in0.0 mm
10:40 AM 19.0°F-7.2°C -1.4°F-18.6°C 40% 2.0 mph W3.2 kmh W 13.0 mph20.9 kmh 210.56 in7130.4 mb 0.00 in0.0 mm 0.00 in0.0 mm 0.00 in0.0 mm
10:45 AM 19.0°F-7.2°C -1.9°F-18.8°C 39% 2.0 mph NW3.2 kmh NW 13.0 mph20.9 kmh 210.54 in7129.7 mb 0.00 in0.0 mm 0.00 in0.0 mm 0.00 in0.0 mm
10:50 AM 19.0°F-7.2°C -1.9°F-18.8°C 39% 2.0 mph SSE3.2 kmh SSE 13.0 mph20.9 kmh 210.54 in7129.7 mb 0.00 in0.0 mm 0.00 in0.0 mm 0.00 in0.0 mm
10:55 AM 19.0°F-7.2°C -1.9°F-18.8°C 39% 3.0 mph N4.8 kmh N 13.0 mph20.9 kmh 210.55 in7130.0 mb 0.00 in0.0 mm 0.00 in0.0 mm 0.00 in0.0 mm
11:00 AM 19.0°F-7.2°C -1.9°F-18.8°C 39% 3.0 mph SW4.8 kmh SW 13.0 mph20.9 kmh 210.55 in7130.0 mb 0.00 in0.0 mm 0.00 in0.0 mm 0.00 in0.0 mm
11:05 AM 19.0°F-7.2°C -1.9°F-18.8°C 39% 1.0 mph SE1.6 kmh SE 13.0 mph20.9 kmh 210.55 in7130.0 mb 0.00 in0.0 mm 0.00 in0.0 mm 0.00 in0.0 mm
11:10 AM 19.0°F-7.2°C -1.9°F-18.8°C 39% 4.0 mph SSW6.4 kmh SSW 13.0 mph20.9 kmh 210.55 in7130.0 mb 0.00 in0.0 mm 0.00 in0.0 mm 0.00 in0.0 mm
11:15 AM 19.0°F-7.2°C -1.9°F-18.8°C 39% 1.0 mph SSW1.6 kmh SSW 13.0 mph20.9 kmh 210.53 in7129.4 mb 0.01 in0.3 mm 0.12 in3.0 mm 0.01 in0.3 mm
11:20 AM 19.0°F-7.2°C -1.9°F-18.8°C 39% 3.0 mph SW4.8 kmh SW 13.0 mph20.9 kmh 210.53 in7129.4 mb 0.01 in0.3 mm 0.00 in0.0 mm 0.01 in0.3 mm
11:25 AM 19.0°F-7.2°C -1.9°F-18.8°C 39% 5.0 mph ESE8.0 kmh ESE 13.0 mph20.9 kmh 210.53 in7129.4 mb 0.01 in0.3 mm 0.00 in0.0 mm 0.01 in0.3 mm
11:30 AM 19.0°F-7.2°C -1.9°F-18.8°C 39% 6.0 mph WNW9.7 kmh WNW 13.0 mph20.9 kmh 210.53 in7129.4 mb 0.01 in0.3 mm 0.00 in0.0 mm 0.01 in0.3 mm
11:35 AM 19.0°F-7.2°C -1.9°F-18.8°C 39% 4.0 mph N6.4 kmh N 13.0 mph20.9 kmh 210.51 in7128.7 mb 0.01 in0.3 mm 0.00 in0.0 mm 0.01 in0.3 mm
11:40 AM 19.0°F-7.2°C -1.9°F-18.8°C 39% 2.0 mph WSW3.2 kmh WSW 13.0 mph20.9 kmh 210.51 in7128.7 mb 0.01 in0.3 mm 0.00 in0.0 mm 0.01 in0.3 mm
11:45 AM 20.0°F-6.7°C -0.5°F-18.1°C 40% 3.0 mph SSE4.8 kmh SSE 13.0 mph20.9 kmh 210.51 in7128.7 mb 0.01 in0.3 mm 0.00 in0.0 mm 0.01 in0.3 mm
11:50 AM 20.0°F-6.7°C -0.5°F-18.1°C 40% Calm Calm 13.0 mph20.9 kmh 210.51 in7128.7 mb 0.01 in0.3 mm 0.00 in0.0 mm 0.01 in0.3 mm
11:55 AM 21.0°F-6.1°C 0.5°F-17.5°C 40% 4.0 mph E6.4 kmh E 13.0 mph20.9 kmh 210.49 in7128.0 mb 0.01 in0.3 mm 0.00 in0.0 mm 0.01 in0.3 mm
12:00 PM 20.0°F-6.7°C -0.5°F-18.1°C 40% 11.0 mph ESE17.7 kmh ESE 13.0 mph20.9 kmh 210.49 in7128.0 mb 0.01 in0.3 mm 0.00 in0.0 mm 0.01 in0.3 mm
12:05 PM 20.0°F-6.7°C -0.5°F-18.1°C 40% 3.0 mph NNE4.8 kmh NNE 15.0 mph24.1 kmh 210.48 in7127.7 mb 0.01 in0.3 mm 0.00 in0.0 mm 0.01 in0.3 mm
12:10 PM 21.0°F-6.1°C 0.5°F-17.5°C 40% 2.0 mph NE3.2 kmh NE 15.0 mph24.1 kmh 210.48 in7127.7 mb 0.01 in0.3 mm 0.00 in0.0 mm 0.01 in0.3 mm
12:15 PM 21.0°F-6.1°C 0.5°F-17.5°C 40% 2.0 mph W3.2 kmh W 15.0 mph24.1 kmh 210.46 in7127.0 mb 0.01 in0.3 mm 0.00 in0.0 mm 0.01 in0.3 mm
12:20 PM 21.0°F-6.1°C 0.5°F-17.5°C 40% 4.0 mph SW6.4 kmh SW 15.0 mph24.1 kmh 210.46 in7127.0 mb 0.01 in0.3 mm 0.00 in0.0 mm 0.01 in0.3 mm
12:25 PM 21.0°F-6.1°C 0.5°F-17.5°C 40% 1.0 mph SW1.6 kmh SW 15.0 mph24.1 kmh 210.46 in7127.0 mb 0.01 in0.3 mm 0.00 in0.0 mm 0.01 in0.3 mm
12:30 PM 22.0°F-5.6°C 1.4°F-17.0°C 40% 5.0 mph SSE8.0 kmh SSE 15.0 mph24.1 kmh 210.46 in7127.0 mb 0.01 in0.3 mm 0.00 in0.0 mm 0.01 in0.3 mm
12:35 PM 22.0°F-5.6°C 1.4°F-17.0°C 40% 2.0 mph S3.2 kmh S 15.0 mph24.1 kmh 210.45 in7126.7 mb 0.01 in0.3 mm 0.00 in0.0 mm 0.01 in0.3 mm
12:40 PM 22.0°F-5.6°C 1.4°F-17.0°C 40% 3.0 mph NW4.8 kmh NW 15.0 mph24.1 kmh 210.45 in7126.7 mb 0.01 in0.3 mm 0.00 in0.0 mm 0.01 in0.3 mm
12:45 PM 22.0°F-5.6°C 1.4°F-17.0°C 40% 8.0 mph W12.9 kmh W 15.0 mph24.1 kmh 210.45 in7126.7 mb 0.01 in0.3 mm 0.00 in0.0 mm 0.01 in0.3 mm
12:50 PM 23.0°F-5.0°C 2.3°F-16.5°C 40% 1.0 mph SSW1.6 kmh SSW 15.0 mph24.1 kmh 210.45 in7126.7 mb 0.01 in0.3 mm 0.00 in0.0 mm 0.01 in0.3 mm
12:55 PM 23.0°F-5.0°C 2.3°F-16.5°C 40% 2.0 mph ENE3.2 kmh ENE 15.0 mph24.1 kmh 210.45 in7126.7 mb 0.01 in0.3 mm 0.00 in0.0 mm 0.01 in0.3 mm
01:00 PM 23.0°F-5.0°C 2.3°F-16.5°C 40% 3.0 mph S4.8 kmh S 15.0 mph24.1 kmh 210.45 in7126.7 mb 0.01 in0.3 mm 0.00 in0.0 mm 0.01 in0.3 mm
01:05 PM 23.0°F-5.0°C 2.3°F-16.5°C 40% 3.0 mph W4.8 kmh W 15.0 mph24.1 kmh 210.44 in7126.3 mb 0.01 in0.3 mm 0.00 in0.0 mm 0.01 in0.3 mm
01:10 PM 24.0°F-4.4°C 3.2°F-16.0°C 40% 1.0 mph NE1.6 kmh NE 15.0 mph24.1 kmh 210.44 in7126.3 mb 0.01 in0.3 mm 0.00 in0.0 mm 0.01 in0.3 mm
01:15 PM 24.0°F-4.4°C 3.2°F-16.0°C 40% 9.0 mph NNW14.5 kmh NNW 15.0 mph24.1 kmh 210.42 in7125.6 mb 0.01 in0.3 mm 0.00 in0.0 mm 0.01 in0.3 mm
01:20 PM 24.0°F-4.4°C 3.2°F-16.0°C 40% 1.0 mph SE1.6 kmh SE 15.0 mph24.1 kmh 210.42 in7125.6 mb 0.01 in0.3 mm 0.00 in0.0 mm 0.01 in0.3 mm
01:25 PM 24.0°F-4.4°C 3.2°F-16.0°C 40% 4.0 mph ENE6.4 kmh ENE 15.0 mph24.1 kmh 210.43 in7126.0 mb 0.01 in0.3 mm 0.00 in0.0 mm 0.01 in0.3 mm
01:30 PM 24.0°F-4.4°C 3.2°F-16.0°C 40% Calm Calm 15.0 mph24.1 kmh 210.43 in7126.0 mb 0.01 in0.3 mm 0.00 in0.0 mm 0.01 in0.3 mm
01:35 PM 25.0°F-3.9°C 4.1°F-15.5°C 40% 4.0 mph SSW6.4 kmh SSW 15.0 mph24.1 kmh 210.41 in7125.3 mb 0.01 in0.3 mm 0.00 in0.0 mm 0.01 in0.3 mm
01:40 PM 25.0°F-3.9°C 4.1°F-15.5°C 40% 1.0 mph NE1.6 kmh NE 15.0 mph24.1 kmh 210.41 in7125.3 mb 0.01 in0.3 mm 0.00 in0.0 mm 0.01 in0.3 mm
01:45 PM 25.0°F-3.9°C 4.1°F-15.5°C 40% 1.0 mph NW1.6 kmh NW 15.0 mph24.1 kmh 210.41 in7125.3 mb 0.01 in0.3 mm 0.00 in0.0 mm 0.01 in0.3 mm
01:50 PM 25.0°F-3.9°C 4.1°F-15.5°C 40% 1.0 mph SE1.6 kmh SE 15.0 mph24.1 kmh 210.41 in7125.3 mb 0.01 in0.3 mm 0.00 in0.0 mm 0.01 in0.3 mm
01:55 PM 25.0°F-3.9°C 4.1°F-15.5°C 40% 3.0 mph WSW4.8 kmh WSW 15.0 mph24.1 kmh 210.40 in7125.0 mb 0.01 in0.3 mm 0.00 in0.0 mm 0.01 in0.3 mm
02:00 PM 25.0°F-3.9°C 4.1°F-15.5°C 40% 5.0 mph W8.0 kmh W 15.0 mph24.1 kmh 210.40 in7125.0 mb 0.01 in0.3 mm 0.00 in0.0 mm 0.01 in0.3 mm
02:05 PM 25.0°F-3.9°C 4.1°F-15.5°C 40% 4.0 mph WNW6.4 kmh WNW 15.0 mph24.1 kmh 210.40 in7125.0 mb 0.01 in0.3 mm 0.00 in0.0 mm 0.01 in0.3 mm
02:10 PM 24.0°F-4.4°C 3.2°F-16.0°C 40% 2.0 mph SW3.2 kmh SW 15.0 mph24.1 kmh 210.40 in7125.0 mb 0.01 in0.3 mm 0.00 in0.0 mm 0.01 in0.3 mm
02:15 PM 24.0°F-4.4°C 3.2°F-16.0°C 40% 1.0 mph WSW1.6 kmh WSW 15.0 mph24.1 kmh 210.39 in7124.6 mb 0.01 in0.3 mm 0.00 in0.0 mm 0.01 in0.3 mm
02:20 PM 24.0°F-4.4°C 3.2°F-16.0°C 40% 1.0 mph S1.6 kmh S 15.0 mph24.1 kmh 210.39 in7124.6 mb 0.01 in0.3 mm 0.00 in0.0 mm 0.01 in0.3 mm
02:25 PM 24.0°F-4.4°C 3.2°F-16.0°C 40% 4.0 mph NW6.4 kmh NW 15.0 mph24.1 kmh 210.38 in7124.3 mb 0.01 in0.3 mm 0.00 in0.0 mm 0.01 in0.3 mm
02:30 PM 24.0°F-4.4°C 3.2°F-16.0°C 40% 6.0 mph NNE9.7 kmh NNE 15.0 mph24.1 kmh 210.38 in7124.3 mb 0.01 in0.3 mm 0.00 in0.0 mm 0.01 in0.3 mm
02:35 PM 23.0°F-5.0°C 2.3°F-16.5°C 40% 4.0 mph S6.4 kmh S 15.0 mph24.1 kmh 210.36 in7123.6 mb 0.01 in0.3 mm 0.00 in0.0 mm 0.01 in0.3 mm
02:40 PM 23.0°F-5.0°C 2.3°F-16.5°C 40% 9.0 mph NNE14.5 kmh NNE 15.0 mph24.1 kmh 210.36 in7123.6 mb 0.01 in0.3 mm 0.00 in0.0 mm 0.01 in0.3 mm
02:45 PM 24.0°F-4.4°C 3.2°F-16.0°C 40% 2.0 mph NNW3.2 kmh NNW 15.0 mph24.1 kmh 210.36 in7123.6 mb 0.01 in0.3 mm 0.00 in0.0 mm 0.01 in0.3 mm
02:50 PM 25.0°F-3.9°C 4.1°F-15.5°C 40% 1.0 mph SE1.6 kmh SE 15.0 mph24.1 kmh 210.36 in7123.6 mb 0.01 in0.3 mm 0.00 in0.0 mm 0.01 in0.3 mm
02:55 PM 25.0°F-3.9°C 4.1°F-15.5°C 40% 3.0 mph E4.8 kmh E 15.0 mph24.1 kmh 210.36 in7123.6 mb 0.01 in0.3 mm 0.00 in0.0 mm 0.01 in0.3 mm
03:00 PM 24.0°F-4.4°C 3.2°F-16.0°C 40% 5.0 mph SW8.0 kmh SW 15.0 mph24.1 kmh 210.36 in7123.6 mb 0.01 in0.3 mm 0.00 in0.0 mm 0.01 in0.3 mm
03:05 PM 23.0°F-5.0°C 2.3°F-16.5°C 40% 4.0 mph N6.4 kmh N 15.0 mph24.1 kmh 210.35 in7123.3 mb 0.01 in0.3 mm 0.00 in0.0 mm 0.01 in0.3 mm
03:10 PM 23.0°F-5.0°C 2.3°F-16.5°C 40% 3.0 mph SSE4.8 kmh SSE 16.0 mph25.7 kmh 210.35 in7123.3 mb 0.01 in0.3 mm 0.00 in0.0 mm 0.01 in0.3 mm
03:15 PM 24.0°F-4.4°C 3.2°F-16.0°C 40% 6.0 mph N9.7 kmh N 16.0 mph25.7 kmh 210.34 in7122.9 mb 0.01 in0.3 mm 0.00 in0.0 mm 0.01 in0.3 mm
03:20 PM 24.0°F-4.4°C 3.2°F-16.0°C 40% 11.0 mph NE17.7 kmh NE 16.0 mph25.7 kmh 210.34 in7122.9 mb 0.01 in0.3 mm 0.00 in0.0 mm 0.01 in0.3 mm
03:25 PM 24.0°F-4.4°C 3.2°F-16.0°C 40% 6.0 mph SSW9.7 kmh SSW 16.0 mph25.7 kmh 210.33 in7122.6 mb 0.01 in0.3 mm 0.00 in0.0 mm 0.01 in0.3 mm
03:30 PM 23.0°F-5.0°C 2.3°F-16.5°C 40% 10.0 mph ENE16.1 kmh ENE 16.0 mph25.7 kmh 210.33 in7122.6 mb 0.01 in0.3 mm 0.00 in0.0 mm 0.01 in0.3 mm
03:35 PM 23.0°F-5.0°C 2.3°F-16.5°C 40% 1.0 mph N1.6 kmh N 16.0 mph25.7 kmh 210.32 in7122.3 mb 0.01 in0.3 mm 0.00 in0.0 mm 0.01 in0.3 mm
03:40 PM 24.0°F-4.4°C 3.2°F-16.0°C 40% 6.0 mph E9.7 kmh E 16.0 mph25.7 kmh 210.32 in7122.3 mb 0.01 in0.3 mm 0.00 in0.0 mm 0.01 in0.3 mm
03:45 PM 24.0°F-4.4°C 3.2°F-16.0°C 40% 1.0 mph WNW1.6 kmh WNW 16.0 mph25.7 kmh 210.32 in7122.3 mb 0.01 in0.3 mm 0.00 in0.0 mm 0.01 in0.3 mm
03:50 PM 24.0°F-4.4°C 3.2°F-16.0°C 40% 2.0 mph ESE3.2 kmh ESE 16.0 mph25.7 kmh 210.32 in7122.3 mb 0.01 in0.3 mm 0.00 in0.0 mm 0.01 in0.3 mm
03:55 PM 24.0°F-4.4°C 3.2°F-16.0°C 40% 6.0 mph SW9.7 kmh SW 16.0 mph25.7 kmh 210.34 in7122.9 mb 0.01 in0.3 mm 0.00 in0.0 mm 0.01 in0.3 mm
04:00 PM 25.0°F-3.9°C 4.1°F-15.5°C 40% 5.0 mph WSW8.0 kmh WSW 16.0 mph25.7 kmh 210.34 in7122.9 mb 0.01 in0.3 mm 0.00 in0.0 mm 0.01 in0.3 mm
04:05 PM 25.0°F-3.9°C 4.1°F-15.5°C 40% 3.0 mph N4.8 kmh N 16.0 mph25.7 kmh 210.31 in7121.9 mb 0.01 in0.3 mm 0.00 in0.0 mm 0.01 in0.3 mm
04:10 PM 24.0°F-4.4°C 3.2°F-16.0°C 40% 13.0 mph E20.9 kmh E 16.0 mph25.7 kmh 210.31 in7121.9 mb 0.01 in0.3 mm 0.00 in0.0 mm 0.01 in0.3 mm
04:15 PM 23.0°F-5.0°C 1.7°F-16.8°C 39% 9.0 mph E14.5 kmh E 16.0 mph25.7 kmh 210.31 in7121.9 mb 0.01 in0.3 mm 0.00 in0.0 mm 0.01 in0.3 mm
04:20 PM 23.0°F-5.0°C 2.3°F-16.5°C 40% 5.0 mph WSW8.0 kmh WSW 16.0 mph25.7 kmh 210.31 in7121.9 mb 0.01 in0.3 mm 0.00 in0.0 mm 0.01 in0.3 mm
04:25 PM 23.0°F-5.0°C 2.3°F-16.5°C 40% 1.0 mph SW1.6 kmh SW 16.0 mph25.7 kmh 210.32 in7122.3 mb 0.01 in0.3 mm 0.00 in0.0 mm 0.01 in0.3 mm
04:30 PM 23.0°F-5.0°C 2.3°F-16.5°C 40% 8.0 mph E12.9 kmh E 16.0 mph25.7 kmh 210.32 in7122.3 mb 0.01 in0.3 mm 0.00 in0.0 mm 0.01 in0.3 mm
04:35 PM 23.0°F-5.0°C 2.3°F-16.5°C 40% 5.0 mph ENE8.0 kmh ENE 16.0 mph25.7 kmh 210.31 in7121.9 mb 0.01 in0.3 mm 0.00 in0.0 mm 0.01 in0.3 mm
04:40 PM 22.0°F-5.6°C 1.4°F-17.0°C 40% 5.0 mph N8.0 kmh N 16.0 mph25.7 kmh 210.31 in7121.9 mb 0.01 in0.3 mm 0.00 in0.0 mm 0.01 in0.3 mm
04:45 PM 22.0°F-5.6°C 1.4°F-17.0°C 40% 6.0 mph ESE9.7 kmh ESE 16.0 mph25.7 kmh 210.30 in7121.6 mb 0.01 in0.3 mm 0.00 in0.0 mm 0.01 in0.3 mm
04:50 PM 22.0°F-5.6°C 1.4°F-17.0°C 40% 6.0 mph SW9.7 kmh SW 16.0 mph25.7 kmh 210.30 in7121.6 mb 0.01 in0.3 mm 0.00 in0.0 mm 0.01 in0.3 mm
04:55 PM 22.0°F-5.6°C 1.4°F-17.0°C 40% 1.0 mph NW1.6 kmh NW 16.0 mph25.7 kmh 210.31 in7121.9 mb 0.01 in0.3 mm 0.00 in0.0 mm 0.01 in0.3 mm
05:00 PM 22.0°F-5.6°C 1.4°F-17.0°C 40% 6.0 mph SW9.7 kmh SW 16.0 mph25.7 kmh 210.31 in7121.9 mb 0.01 in0.3 mm 0.00 in0.0 mm 0.01 in0.3 mm
05:05 PM 22.0°F-5.6°C 1.4°F-17.0°C 40% 6.0 mph W9.7 kmh W 16.0 mph25.7 kmh 210.28 in7120.9 mb 0.01 in0.3 mm 0.00 in0.0 mm 0.01 in0.3 mm
05:10 PM 22.0°F-5.6°C 1.4°F-17.0°C 40% 3.0 mph S4.8 kmh S 16.0 mph25.7 kmh 210.28 in7120.9 mb 0.01 in0.3 mm 0.00 in0.0 mm 0.01 in0.3 mm
05:15 PM 22.0°F-5.6°C 1.4°F-17.0°C 40% 3.0 mph NW4.8 kmh NW 16.0 mph25.7 kmh 210.28 in7120.9 mb 0.01 in0.3 mm 0.00 in0.0 mm 0.01 in0.3 mm
05:20 PM 22.0°F-5.6°C 1.4°F-17.0°C 40% 3.0 mph N4.8 kmh N 16.0 mph25.7 kmh 210.28 in7120.9 mb 0.01 in0.3 mm 0.00 in0.0 mm 0.01 in0.3 mm
05:25 PM 22.0°F-5.6°C 1.4°F-17.0°C 40% 1.0 mph ENE1.6 kmh ENE 16.0 mph25.7 kmh 210.28 in7120.9 mb 0.01 in0.3 mm 0.00 in0.0 mm 0.01 in0.3 mm
05:30 PM 22.0°F-5.6°C 1.4°F-17.0°C 40% 6.0 mph SSE9.7 kmh SSE 18.0 mph29.0 kmh 210.28 in7120.9 mb 0.01 in0.3 mm 0.00 in0.0 mm 0.01 in0.3 mm
05:35 PM 22.0°F-5.6°C 1.4°F-17.0°C 40% 4.0 mph SSE6.4 kmh SSE 18.0 mph29.0 kmh 210.28 in7120.9 mb 0.01 in0.3 mm 0.00 in0.0 mm 0.01 in0.3 mm
05:40 PM 22.0°F-5.6°C 1.4°F-17.0°C 40% 3.0 mph SE4.8 kmh SE 18.0 mph29.0 kmh 210.28 in7120.9 mb 0.01 in0.3 mm 0.00 in0.0 mm 0.01 in0.3 mm
05:45 PM 22.0°F-5.6°C 1.4°F-17.0°C 40% 3.0 mph ENE4.8 kmh ENE 19.0 mph30.6 kmh 210.28 in7120.9 mb 0.01 in0.3 mm 0.00 in0.0 mm 0.01 in0.3 mm
05:50 PM 22.0°F-5.6°C 0.8°F-17.3°C 39% 4.0 mph S6.4 kmh S 19.0 mph30.6 kmh 210.28 in7120.9 mb 0.01 in0.3 mm 0.00 in0.0 mm 0.01 in0.3 mm
05:55 PM 22.0°F-5.6°C 1.4°F-17.0°C 40% 1.0 mph SSW1.6 kmh SSW 19.0 mph30.6 kmh 210.28 in7120.9 mb 0.01 in0.3 mm 0.00 in0.0 mm 0.01 in0.3 mm
06:00 PM 22.0°F-5.6°C 1.4°F-17.0°C 40% 4.0 mph E6.4 kmh E 19.0 mph30.6 kmh 210.28 in7120.9 mb 0.01 in0.3 mm 0.00 in0.0 mm 0.01 in0.3 mm
06:05 PM 22.0°F-5.6°C 1.4°F-17.0°C 40% 6.0 mph E9.7 kmh E 19.0 mph30.6 kmh 210.27 in7120.6 mb 0.01 in0.3 mm 0.00 in0.0 mm 0.01 in0.3 mm
06:10 PM 22.0°F-5.6°C 1.4°F-17.0°C 40% 4.0 mph NW6.4 kmh NW 19.0 mph30.6 kmh 210.27 in7120.6 mb 0.01 in0.3 mm 0.00 in0.0 mm 0.01 in0.3 mm
06:15 PM 22.0°F-5.6°C 1.4°F-17.0°C 40% 6.0 mph SW9.7 kmh SW 19.0 mph30.6 kmh 210.26 in7120.2 mb 0.01 in0.3 mm 0.00 in0.0 mm 0.01 in0.3 mm
06:20 PM 22.0°F-5.6°C 1.4°F-17.0°C 40% 15.0 mph ESE24.1 kmh ESE 19.0 mph30.6 kmh 210.26 in7120.2 mb 0.01 in0.3 mm 0.00 in0.0 mm 0.01 in0.3 mm
06:25 PM 22.0°F-5.6°C 1.4°F-17.0°C 40% 12.0 mph NNE19.3 kmh NNE 19.0 mph30.6 kmh 210.26 in7120.2 mb 0.01 in0.3 mm 0.00 in0.0 mm 0.01 in0.3 mm
06:30 PM 22.0°F-5.6°C 1.4°F-17.0°C 40% 2.0 mph W3.2 kmh W 19.0 mph30.6 kmh 210.26 in7120.2 mb 0.01 in0.3 mm 0.00 in0.0 mm 0.01 in0.3 mm
06:35 PM 22.0°F-5.6°C 1.4°F-17.0°C 40% 4.0 mph NNE6.4 kmh NNE 19.0 mph30.6 kmh 210.26 in7120.2 mb 0.01 in0.3 mm 0.00 in0.0 mm 0.01 in0.3 mm
06:40 PM 22.0°F-5.6°C 1.4°F-17.0°C 40% 2.0 mph NW3.2 kmh NW 19.0 mph30.6 kmh 210.26 in7120.2 mb 0.01 in0.3 mm 0.00 in0.0 mm 0.01 in0.3 mm
06:45 PM 23.0°F-5.0°C 2.3°F-16.5°C 40% 2.0 mph WNW3.2 kmh WNW 19.0 mph30.6 kmh 210.23 in7119.2 mb 0.01 in0.3 mm 0.00 in0.0 mm 0.01 in0.3 mm
06:50 PM 23.0°F-5.0°C 2.3°F-16.5°C 40% 4.0 mph S6.4 kmh S 19.0 mph30.6 kmh 210.23 in7119.2 mb 0.01 in0.3 mm 0.00 in0.0 mm 0.01 in0.3 mm
06:55 PM 23.0°F-5.0°C 2.3°F-16.5°C 40% 1.0 mph NE1.6 kmh NE 19.0 mph30.6 kmh 210.25 in7119.9 mb 0.01 in0.3 mm 0.00 in0.0 mm 0.01 in0.3 mm
07:00 PM 23.0°F-5.0°C 2.3°F-16.5°C 40% 5.0 mph SSE8.0 kmh SSE 19.0 mph30.6 kmh 210.25 in7119.9 mb 0.01 in0.3 mm 0.00 in0.0 mm 0.01 in0.3 mm
07:05 PM 23.0°F-5.0°C 2.3°F-16.5°C 40% 3.0 mph ESE4.8 kmh ESE 19.0 mph30.6 kmh 210.26 in7120.2 mb 0.01 in0.3 mm 0.00 in0.0 mm 0.01 in0.3 mm
07:10 PM 23.0°F-5.0°C 2.3°F-16.5°C 40% Calm Calm 19.0 mph30.6 kmh 210.26 in7120.2 mb 0.02 in0.5 mm 0.12 in3.0 mm 0.02 in0.5 mm
07:15 PM 23.0°F-5.0°C 2.3°F-16.5°C 40% 4.0 mph SW6.4 kmh SW 19.0 mph30.6 kmh 210.26 in7120.2 mb 0.02 in0.5 mm 0.00 in0.0 mm 0.02 in0.5 mm
07:20 PM 23.0°F-5.0°C 2.3°F-16.5°C 40% 1.0 mph SW1.6 kmh SW 19.0 mph30.6 kmh 210.26 in7120.2 mb 0.02 in0.5 mm 0.00 in0.0 mm 0.02 in0.5 mm
07:25 PM 23.0°F-5.0°C 2.3°F-16.5°C 40% 5.0 mph E8.0 kmh E 19.0 mph30.6 kmh 210.28 in7120.9 mb 0.02 in0.5 mm 0.00 in0.0 mm 0.02 in0.5 mm
07:30 PM 23.0°F-5.0°C 2.3°F-16.5°C 40% Calm Calm 19.0 mph30.6 kmh 210.28 in7120.9 mb 0.02 in0.5 mm 0.00 in0.0 mm 0.02 in0.5 mm
07:35 PM 23.0°F-5.0°C 2.3°F-16.5°C 40% 4.0 mph NE6.4 kmh NE 19.0 mph30.6 kmh 210.27 in7120.6 mb 0.05 in1.3 mm 0.36 in9.1 mm 0.05 in1.3 mm
07:40 PM 22.0°F-5.6°C 1.4°F-17.0°C 40% 5.0 mph ENE8.0 kmh ENE 19.0 mph30.6 kmh 210.27 in7120.6 mb 0.05 in1.3 mm 0.00 in0.0 mm 0.05 in1.3 mm
07:45 PM 22.0°F-5.6°C 1.9°F-16.7°C 41% 4.0 mph WSW6.4 kmh WSW 19.0 mph30.6 kmh 210.25 in7119.9 mb 0.05 in1.3 mm 0.00 in0.0 mm 0.05 in1.3 mm
07:50 PM 22.0°F-5.6°C 1.9°F-16.7°C 41% 5.0 mph SE8.0 kmh SE 19.0 mph30.6 kmh 210.25 in7119.9 mb 0.05 in1.3 mm 0.00 in0.0 mm 0.05 in1.3 mm
07:55 PM 21.0°F-6.1°C 1.0°F-17.2°C 41% 6.0 mph SW9.7 kmh SW 19.0 mph30.6 kmh 210.26 in7120.2 mb 0.06 in1.5 mm 0.12 in3.0 mm 0.06 in1.5 mm
08:00 PM 21.0°F-6.1°C 1.0°F-17.2°C 41% 5.0 mph W8.0 kmh W 19.0 mph30.6 kmh 210.26 in7120.2 mb 0.07 in1.8 mm 0.01 in0.3 mm 0.07 in1.8 mm
08:05 PM 21.0°F-6.1°C 1.5°F-16.9°C 42% 6.0 mph SSW9.7 kmh SSW 19.0 mph30.6 kmh 210.26 in7120.2 mb 0.07 in1.8 mm 0.00 in0.0 mm 0.07 in1.8 mm
08:10 PM 21.0°F-6.1°C 1.5°F-16.9°C 42% 1.0 mph S1.6 kmh S 19.0 mph30.6 kmh 210.26 in7120.2 mb 0.07 in1.8 mm 0.00 in0.0 mm 0.07 in1.8 mm
08:15 PM 21.0°F-6.1°C 2.0°F-16.7°C 43% 6.0 mph ESE9.7 kmh ESE 19.0 mph30.6 kmh 210.26 in7120.2 mb 0.07 in1.8 mm 0.00 in0.0 mm 0.07 in1.8 mm
08:20 PM 21.0°F-6.1°C -1.2°F-18.4°C 37% Calm Calm 19.0 mph30.6 kmh 210.26 in7120.2 mb 0.07 in1.8 mm 0.00 in0.0 mm 0.07 in1.8 mm
08:25 PM 21.0°F-6.1°C -1.2°F-18.4°C 37% 4.0 mph ENE6.4 kmh ENE 19.0 mph30.6 kmh 210.26 in7120.2 mb 0.07 in1.8 mm 0.00 in0.0 mm 0.07 in1.8 mm
08:30 PM 21.0°F-6.1°C -1.2°F-18.4°C 37% 5.0 mph WSW8.0 kmh WSW 19.0 mph30.6 kmh 210.26 in7120.2 mb 0.07 in1.8 mm 0.00 in0.0 mm 0.07 in1.8 mm
08:35 PM 21.0°F-6.1°C -1.8°F-18.8°C 36% Calm Calm 19.0 mph30.6 kmh 210.24 in7119.5 mb 0.07 in1.8 mm 0.00 in0.0 mm 0.07 in1.8 mm
08:40 PM 21.0°F-6.1°C -1.2°F-18.4°C 37% 4.0 mph NE6.4 kmh NE 19.0 mph30.6 kmh 210.24 in7119.5 mb 0.07 in1.8 mm 0.00 in0.0 mm 0.07 in1.8 mm
08:45 PM 21.0°F-6.1°C -1.2°F-18.4°C 37% 4.0 mph ENE6.4 kmh ENE 19.0 mph30.6 kmh 210.26 in7120.2 mb 0.07 in1.8 mm 0.00 in0.0 mm 0.07 in1.8 mm
08:50 PM 21.0°F-6.1°C -0.6°F-18.1°C 38% Calm Calm 19.0 mph30.6 kmh 210.26 in7120.2 mb 0.07 in1.8 mm 0.00 in0.0 mm 0.07 in1.8 mm
08:55 PM 22.0°F-5.6°C 0.3°F-17.6°C 38% 7.0 mph NW11.3 kmh NW 19.0 mph30.6 kmh 210.26 in7120.2 mb 0.07 in1.8 mm 0.00 in0.0 mm 0.07 in1.8 mm
09:00 PM 22.0°F-5.6°C 0.3°F-17.6°C 38% 11.0 mph ESE17.7 kmh ESE 19.0 mph30.6 kmh 210.26 in7120.2 mb 0.07 in1.8 mm 0.00 in0.0 mm 0.07 in1.8 mm
09:05 PM 22.0°F-5.6°C 0.3°F-17.6°C 38% 2.0 mph SSE3.2 kmh SSE 19.0 mph30.6 kmh 210.24 in7119.5 mb 0.07 in1.8 mm 0.00 in0.0 mm 0.07 in1.8 mm
09:10 PM 22.0°F-5.6°C 0.3°F-17.6°C 38% 8.0 mph SE12.9 kmh SE 19.0 mph30.6 kmh 210.24 in7119.5 mb 0.07 in1.8 mm 0.00 in0.0 mm 0.07 in1.8 mm
09:15 PM 22.0°F-5.6°C -2.7°F-19.3°C 33% 7.0 mph SE11.3 kmh SE 19.0 mph30.6 kmh 210.25 in7119.9 mb 0.07 in1.8 mm 0.00 in0.0 mm 0.07 in1.8 mm
09:20 PM 22.0°F-5.6°C 0.3°F-17.6°C 38% 3.0 mph S4.8 kmh S 19.0 mph30.6 kmh 210.25 in7119.9 mb 0.07 in1.8 mm 0.00 in0.0 mm 0.07 in1.8 mm
09:25 PM 22.0°F-5.6°C 0.3°F-17.6°C 38% 8.0 mph S12.9 kmh S 19.0 mph30.6 kmh 210.25 in7119.9 mb 0.07 in1.8 mm 0.00 in0.0 mm 0.07 in1.8 mm
09:30 PM 22.0°F-5.6°C 0.3°F-17.6°C 38% 6.0 mph WSW9.7 kmh WSW 19.0 mph30.6 kmh 210.25 in7119.9 mb 0.07 in1.8 mm 0.00 in0.0 mm 0.07 in1.8 mm
09:35 PM 22.0°F-5.6°C 0.3°F-17.6°C 38% 10.0 mph ENE16.1 kmh ENE 19.0 mph30.6 kmh 210.24 in7119.5 mb 0.07 in1.8 mm 0.00 in0.0 mm 0.07 in1.8 mm
09:40 PM 22.0°F-5.6°C 0.3°F-17.6°C 38% Calm Calm 19.0 mph30.6 kmh 210.24 in7119.5 mb 0.07 in1.8 mm 0.00 in0.0 mm 0.07 in1.8 mm
09:45 PM 22.0°F-5.6°C 0.3°F-17.6°C 38% 4.0 mph ESE6.4 kmh ESE 19.0 mph30.6 kmh 210.24 in7119.5 mb 0.07 in1.8 mm 0.00 in0.0 mm 0.07 in1.8 mm
09:50 PM 22.0°F-5.6°C 0.3°F-17.6°C 38% 1.0 mph SE1.6 kmh SE 19.0 mph30.6 kmh 210.24 in7119.5 mb 0.07 in1.8 mm 0.00 in0.0 mm 0.07 in1.8 mm
09:55 PM 22.0°F-5.6°C 0.3°F-17.6°C 38% 14.0 mph ENE22.5 kmh ENE 19.0 mph30.6 kmh 210.24 in7119.5 mb 0.07 in1.8 mm 0.00 in0.0 mm 0.07 in1.8 mm
10:00 PM 22.0°F-5.6°C 0.3°F-17.6°C 38% 6.0 mph SW9.7 kmh SW 19.0 mph30.6 kmh 210.24 in7119.5 mb 0.07 in1.8 mm 0.00 in0.0 mm 0.07 in1.8 mm
10:05 PM 22.0°F-5.6°C 0.3°F-17.6°C 38% 5.0 mph NW8.0 kmh NW 19.0 mph30.6 kmh 210.23 in7119.2 mb 0.07 in1.8 mm 0.00 in0.0 mm 0.07 in1.8 mm
10:10 PM 22.0°F-5.6°C 0.3°F-17.6°C 38% 3.0 mph WSW4.8 kmh WSW 19.0 mph30.6 kmh 210.23 in7119.2 mb 0.07 in1.8 mm 0.00 in0.0 mm 0.07 in1.8 mm
10:15 PM 22.0°F-5.6°C 0.3°F-17.6°C 38% 3.0 mph S4.8 kmh S 19.0 mph30.6 kmh 210.24 in7119.5 mb 0.07 in1.8 mm 0.00 in0.0 mm 0.07 in1.8 mm
10:20 PM 22.0°F-5.6°C 0.3°F-17.6°C 38% 6.0 mph ESE9.7 kmh ESE 19.0 mph30.6 kmh 210.24 in7119.5 mb 0.07 in1.8 mm 0.00 in0.0 mm 0.07 in1.8 mm
10:25 PM 22.0°F-5.6°C 0.3°F-17.6°C 38% 1.0 mph S1.6 kmh S 19.0 mph30.6 kmh 210.24 in7119.5 mb 0.07 in1.8 mm 0.00 in0.0 mm 0.07 in1.8 mm
10:30 PM 22.0°F-5.6°C 0.3°F-17.6°C 38% 1.0 mph SSW1.6 kmh SSW 19.0 mph30.6 kmh 210.24 in7119.5 mb 0.07 in1.8 mm 0.00 in0.0 mm 0.07 in1.8 mm
10:35 PM 22.0°F-5.6°C 0.3°F-17.6°C 38% 2.0 mph WSW3.2 kmh WSW 19.0 mph30.6 kmh 210.24 in7119.5 mb 0.07 in1.8 mm 0.00 in0.0 mm 0.07 in1.8 mm
10:40 PM 22.0°F-5.6°C 0.3°F-17.6°C 38% 1.0 mph S1.6 kmh S 19.0 mph30.6 kmh 210.24 in7119.5 mb 0.07 in1.8 mm 0.00 in0.0 mm 0.07 in1.8 mm
10:45 PM 22.0°F-5.6°C 0.3°F-17.6°C 38% 3.0 mph WSW4.8 kmh WSW 19.0 mph30.6 kmh 210.25 in7119.9 mb 0.07 in1.8 mm 0.00 in0.0 mm 0.07 in1.8 mm
10:50 PM 22.0°F-5.6°C 0.3°F-17.6°C 38% 1.0 mph SW1.6 kmh SW 19.0 mph30.6 kmh 210.25 in7119.9 mb 0.07 in1.8 mm 0.00 in0.0 mm 0.07 in1.8 mm
10:55 PM 22.0°F-5.6°C 0.3°F-17.6°C 38% 3.0 mph E4.8 kmh E 19.0 mph30.6 kmh 210.24 in7119.5 mb 0.07 in1.8 mm 0.00 in0.0 mm 0.07 in1.8 mm
11:00 PM 22.0°F-5.6°C 0.3°F-17.6°C 38% Calm Calm 19.0 mph30.6 kmh 210.24 in7119.5 mb 0.07 in1.8 mm 0.00 in0.0 mm 0.07 in1.8 mm
11:05 PM 23.0°F-5.0°C 1.2°F-17.1°C 38% 5.0 mph SW8.0 kmh SW 19.0 mph30.6 kmh 210.24 in7119.5 mb 0.07 in1.8 mm 0.00 in0.0 mm 0.07 in1.8 mm
11:10 PM 23.0°F-5.0°C 1.2°F-17.1°C 38% 1.0 mph WSW1.6 kmh WSW 19.0 mph30.6 kmh 210.24 in7119.5 mb 0.07 in1.8 mm 0.00 in0.0 mm 0.07 in1.8 mm
11:15 PM 23.0°F-5.0°C 1.2°F-17.1°C 38% 1.0 mph NNE1.6 kmh NNE 19.0 mph30.6 kmh 210.24 in7119.5 mb 0.07 in1.8 mm 0.00 in0.0 mm 0.07 in1.8 mm
11:20 PM 23.0°F-5.0°C 1.2°F-17.1°C 38% Calm Calm 19.0 mph30.6 kmh 210.24 in7119.5 mb 0.07 in1.8 mm 0.00 in0.0 mm 0.07 in1.8 mm
11:25 PM 23.0°F-5.0°C 1.7°F-16.8°C 39% 2.0 mph ESE3.2 kmh ESE 19.0 mph30.6 kmh 210.24 in7119.5 mb 0.07 in1.8 mm 0.00 in0.0 mm 0.07 in1.8 mm
11:30 PM 23.0°F-5.0°C 2.3°F-16.5°C 40% 4.0 mph SSE6.4 kmh SSE 19.0 mph30.6 kmh 210.24 in7119.5 mb 0.07 in1.8 mm 0.00 in0.0 mm 0.07 in1.8 mm
11:35 PM 23.0°F-5.0°C 1.7°F-16.8°C 39% 2.0 mph ESE3.2 kmh ESE 19.0 mph30.6 kmh 210.25 in7119.9 mb 0.07 in1.8 mm 0.00 in0.0 mm 0.07 in1.8 mm
11:40 PM 23.0°F-5.0°C 1.7°F-16.8°C 39% Calm Calm 19.0 mph30.6 kmh 210.25 in7119.9 mb 0.07 in1.8 mm 0.00 in0.0 mm 0.07 in1.8 mm
11:45 PM 23.0°F-5.0°C 1.7°F-16.8°C 39% Calm Calm 19.0 mph30.6 kmh 210.24 in7119.5 mb 0.07 in1.8 mm 0.00 in0.0 mm 0.07 in1.8 mm
11:50 PM 23.0°F-5.0°C 1.7°F-16.8°C 39% Calm Calm 19.0 mph30.6 kmh 210.24 in7119.5 mb 0.07 in1.8 mm 0.00 in0.0 mm 0.07 in1.8 mm
11:55 PM 23.0°F-5.0°C 1.7°F-16.8°C 39% Calm Calm 19.0 mph30.6 kmh 210.24 in7119.5 mb 0.07 in1.8 mm 0.00 in0.0 mm 0.07 in1.8 mm